Time;durP1;ratioP1;P1;durP2;ratioP2;P2;SDS_P1;SDS_P2;PMS_P1;PMS_P2;Temp;Humidity;BMP_temperature;BMP_pressure;BME280_temperature;BME280_humidity;BME280_pressure;Samples;Min_cycle;Max_cycle;Signal;HPM_P1;HPM_P2
2021/06/04 00:00:00;;;;;;;3.37;2.37;;;;;;;24.30;76.92;98421.53;5111908;28;20533;-72
2021/06/04 00:02:27;;;;;;;3.00;2.00;;;;;;;24.05;77.53;98421.59;5108838;28;20656;-72
2021/06/04 00:04:54;;;;;;;2.97;2.13;;;;;;;24.08;78.22;98423.78;5109608;28;20214;-72
2021/06/04 00:07:21;;;;;;;2.20;1.90;;;;;;;23.58;81.16;98429.28;5105536;28;20533;-72
2021/06/04 00:09:47;;;;;;;3.40;2.60;;;;;;;23.80;80.24;98421.63;5107311;28;20205;-72
2021/06/04 00:12:14;;;;;;;6.03;2.40;;;;;;;23.94;79.30;98422.72;5111764;28;20721;-72
2021/06/04 00:14:43;;;;;;;3.27;2.47;;;;;;;23.65;81.13;98419.75;5104994;28;20209;-72
2021/06/04 00:17:14;;;;;;;1.90;1.70;;;;;;;23.70;81.22;98417.00;5104706;28;20224;-72
2021/06/04 00:19:42;;;;;;;5.00;2.13;;;;;;;23.76;80.66;98426.81;5110160;28;20193;-72
2021/06/04 00:22:14;;;;;;;3.70;2.10;;;;;;;23.72;81.15;98414.81;5111778;28;20190;-72
2021/06/04 00:24:42;;;;;;;3.20;2.07;;;;;;;23.57;82.08;98411.31;5110461;28;20196;-72
2021/06/04 00:27:10;;;;;;;2.97;2.23;;;;;;;23.65;81.40;98410.75;5116305;28;20215;-72
2021/06/04 00:29:38;;;;;;;3.03;2.10;;;;;;;23.65;80.99;98410.75;5109052;28;20676;-72
2021/06/04 00:32:05;;;;;;;3.33;2.10;;;;;;;23.79;80.34;98409.91;5108800;28;20251;-72
2021/06/04 00:34:34;;;;;;;3.27;2.10;;;;;;;24.02;78.87;98414.00;5119787;28;20252;-72
2021/06/04 00:37:01;;;;;;;2.37;2.10;;;;;;;23.42;82.11;98408.59;5111109;28;20708;-74
2021/06/04 00:39:30;;;;;;;2.63;2.10;;;;;;;23.63;81.46;98411.03;5105168;28;20198;-72
2021/06/04 00:42:00;;;;;;;3.17;2.30;;;;;;;23.77;81.12;98408.56;5106065;28;20215;-73
2021/06/04 00:44:28;;;;;;;2.53;2.17;;;;;;;23.57;81.67;98409.38;5110986;28;20201;-72
2021/06/04 00:46:56;;;;;;;2.60;1.93;;;;;;;23.64;82.02;98409.94;5104333;27;20291;-72
2021/06/04 00:49:23;;;;;;;4.40;2.10;;;;;;;23.53;82.83;98410.22;5119809;28;20689;-72
2021/06/04 00:51:54;;;;;;;2.70;2.13;;;;;;;23.58;82.88;98402.88;5107087;28;20604;-72
2021/06/04 00:54:22;;;;;;;4.43;2.27;;;;;;;23.06;85.90;98402.28;5111711;28;20246;-72
2021/06/04 00:56:49;;;;;;;2.70;2.27;;;;;;;23.29;85.37;98400.97;5109429;28;20227;-72
2021/06/04 00:59:24;;;;;;;4.00;1.93;;;;;;;23.59;83.56;98404.50;5108560;28;20212;-72
2021/06/04 01:01:51;;;;;;;3.67;2.17;;;;;;;23.73;81.93;98410.19;5113866;28;20197;-72
2021/06/04 01:04:20;;;;;;;2.23;1.80;;;;;;;23.63;82.30;98410.22;5117106;27;20204;-72
2021/06/04 01:06:54;;;;;;;3.67;2.20;;;;;;;23.73;81.51;98411.03;5113553;28;20197;-73
2021/06/04 01:09:31;;;;;;;2.90;2.10;;;;;;;23.59;82.65;98412.69;5105086;28;20680;-72
2021/06/04 01:12:17;;;;;;;3.00;2.37;;;;;;;23.91;80.50;98412.38;5112375;28;20193;-72
2021/06/04 01:14:51;;;;;;;3.33;2.07;;;;;;;23.89;80.89;98409.94;5111382;27;20541;-72
2021/06/04 01:17:25;;;;;;;3.00;2.00;;;;;;;23.75;81.34;98416.19;5114998;28;20262;-72
2021/06/04 01:19:58;;;;;;;4.30;2.20;;;;;;;23.45;83.36;98413.47;5110356;28;20543;-72
2021/06/04 01:22:40;;;;;;;3.50;2.40;;;;;;;23.60;82.66;98408.03;5115015;28;20196;-72
2021/06/04 01:25:33;;;;;;;3.23;2.13;;;;;;;23.58;83.41;98413.78;5107022;28;20190;-72
2021/06/04 01:28:05;;;;;;;2.20;2.00;;;;;;;23.48;83.70;98413.78;5114510;28;20268;-72
2021/06/04 01:30:35;;;;;;;2.20;1.73;;;;;;;23.32;85.35;98416.78;5115049;28;20196;-72
2021/06/04 01:33:05;;;;;;;3.57;2.20;;;;;;;23.54;84.12;98420.84;5112715;28;20687;-73
2021/06/04 01:35:37;;;;;;;3.40;2.03;;;;;;;23.26;85.28;98415.94;5109689;28;20200;-72
2021/06/04 01:38:04;;;;;;;3.27;2.20;;;;;;;23.45;84.13;98416.22;5106702;28;20233;-72
2021/06/04 01:40:35;;;;;;;3.53;2.20;;;;;;;23.50;83.76;98416.22;5109968;28;20202;-72
2021/06/04 01:43:05;;;;;;;3.00;2.30;;;;;;;23.72;82.50;98414.03;5113998;28;20188;-73
2021/06/04 01:45:35;;;;;;;3.43;2.57;;;;;;;23.70;82.16;98421.63;5110092;28;20292;-72
2021/06/04 01:48:06;;;;;;;3.70;2.27;;;;;;;23.70;82.28;98416.19;5106192;28;20222;-72
2021/06/04 01:50:36;;;;;;;3.60;2.43;;;;;;;23.65;82.18;98421.66;5110715;28;20249;-72
2021/06/04 01:53:09;;;;;;;3.00;2.20;;;;;;;23.64;82.41;98423.56;5111916;28;20192;-72
2021/06/04 01:55:40;;;;;;;3.77;2.40;;;;;;;23.49;83.54;98423.59;5113662;28;20652;-73
2021/06/04 01:58:11;;;;;;;2.40;2.20;;;;;;;23.38;84.54;98430.13;5112647;28;20232;-72
2021/06/04 02:00:41;;;;;;;3.73;2.63;;;;;;;23.16;86.07;98420.56;5106935;28;20275;-72
2021/06/04 02:03:09;;;;;;;4.60;2.60;;;;;;;22.82;89.16;98427.56;5113916;28;20193;-72
2021/06/04 02:05:38;;;;;;;2.83;2.23;;;;;;;22.74;90.05;98426.19;5113083;28;20643;-72
2021/06/04 02:08:08;;;;;;;2.80;2.43;;;;;;;23.09;87.55;98422.69;5111284;28;20220;-72
2021/06/04 02:10:40;;;;;;;4.33;2.40;;;;;;;23.04;87.41;98428.16;5114261;28;20252;-72
2021/06/04 02:13:08;;;;;;;2.87;2.30;;;;;;;23.11;86.85;98432.22;5114099;28;20189;-72
2021/06/04 02:15:38;;;;;;;4.30;2.30;;;;;;;23.14;87.11;98422.72;5114194;28;20200;-72
2021/06/04 02:18:12;;;;;;;4.97;2.70;;;;;;;23.02;87.58;98427.59;5110179;28;20224;-73
2021/06/04 02:20:44;;;;;;;3.10;2.33;;;;;;;22.98;88.22;98429.22;5110535;28;20189;-72
2021/06/04 02:23:14;;;;;;;3.63;2.40;;;;;;;23.34;85.96;98433.66;5110973;28;20204;-72
2021/06/04 02:25:48;;;;;;;3.77;2.73;;;;;;;23.42;85.17;98436.63;5109543;28;20199;-72
2021/06/04 02:28:19;;;;;;;2.93;2.60;;;;;;;23.26;86.48;98423.31;5113908;27;20304;-72
2021/06/04 02:30:51;;;;;;;3.20;2.47;;;;;;;23.24;86.39;98433.63;5104023;28;20204;-72
2021/06/04 02:33:21;;;;;;;4.87;2.80;;;;;;;23.05;88.03;98429.81;5110466;27;20284;-72
2021/06/04 02:35:55;;;;;;;3.87;2.90;;;;;;;22.88;90.30;98429.22;5107859;28;20198;-72
2021/06/04 02:38:25;;;;;;;4.23;2.80;;;;;;;23.02;89.64;98433.06;5111328;28;20230;-72
2021/06/04 02:40:58;;;;;;;3.60;2.60;;;;;;;22.98;89.83;98430.06;5112125;28;20672;-73
2021/06/04 02:43:27;;;;;;;5.33;2.90;;;;;;;22.96;90.50;98418.59;5112931;28;20207;-72
2021/06/04 02:46:02;;;;;;;3.60;2.73;;;;;;;22.74;92.46;98426.19;5112740;28;20816;-71
2021/06/04 02:48:32;;;;;;;4.03;2.87;;;;;;;22.78;91.98;98421.03;5109128;28;20227;-72
2021/06/04 02:51:08;;;;;;;3.40;2.70;;;;;;;22.43;93.98;98420.88;5111374;28;20222;-72
2021/06/04 02:53:42;;;;;;;3.53;2.73;;;;;;;22.75;92.15;98425.09;5105318;28;20203;-72
2021/06/04 02:56:23;;;;;;;3.40;2.67;;;;;;;22.73;92.46;98427.28;5106343;28;20191;-73
2021/06/04 02:58:53;;;;;;;6.03;2.80;;;;;;;22.68;92.80;98415.53;5111762;28;20222;-73
2021/06/04 03:01:22;;;;;;;3.73;2.67;;;;;;;22.98;90.42;98421.06;5111809;28;20651;-73
2021/06/04 03:03:50;;;;;;;3.47;3.03;;;;;;;22.74;91.67;98420.75;5107294;28;20204;-73
2021/06/04 03:06:19;;;;;;;4.10;2.57;;;;;;;22.77;92.59;98424.84;5112409;28;20229;-73
2021/06/04 03:08:47;;;;;;;4.83;3.03;;;;;;;22.74;92.83;98419.91;5110850;28;20236;-73
2021/06/04 03:11:21;;;;;;;4.67;3.30;;;;;;;22.88;92.73;98429.22;5105323;28;20218;-73
2021/06/04 03:13:50;;;;;;;5.20;3.07;;;;;;;22.91;92.77;98428.69;5110801;28;20192;-73
2021/06/04 03:16:21;;;;;;;5.33;3.57;;;;;;;22.97;93.92;98420.25;5109148;28;20372;-74
2021/06/04 03:18:50;;;;;;;6.47;3.70;;;;;;;23.25;91.66;98422.47;5109666;28;20715;-74
2021/06/04 03:21:21;;;;;;;5.57;3.67;;;;;;;23.09;92.57;98422.69;5104448;27;20611;-71
2021/06/04 03:23:49;;;;;;;4.93;2.83;;;;;;;23.18;92.13;98415.66;5109865;28;20208;-74
2021/06/04 03:26:22;;;;;;;4.40;3.50;;;;;;;23.33;90.39;98426.56;5111279;28;20226;-71
2021/06/04 03:28:51;;;;;;;4.23;3.57;;;;;;;23.36;91.48;98426.03;5101195;28;20707;-73
2021/06/04 03:31:21;;;;;;;7.53;4.03;;;;;;;23.22;92.05;98420.31;5112299;28;20206;-71
2021/06/04 03:33:49;;;;;;;5.17;3.70;;;;;;;23.48;91.09;98426.56;5107260;28;20207;-71
2021/06/04 03:36:19;;;;;;;4.40;3.40;;;;;;;23.54;90.20;98420.03;5106918;28;20199;-71
2021/06/04 03:38:46;;;;;;;4.90;4.03;;;;;;;23.44;91.84;98420.03;5111775;27;20307;-71
2021/06/04 03:41:16;;;;;;;5.10;3.50;;;;;;;23.47;91.70;98427.66;5110871;28;20207;-71
2021/06/04 03:43:44;;;;;;;4.30;3.70;;;;;;;23.70;89.65;98427.91;5106254;28;20202;-71
2021/06/04 03:46:11;;;;;;;6.07;3.93;;;;;;;23.86;88.98;98439.63;5107956;28;20200;-71
2021/06/04 03:48:38;;;;;;;4.53;3.47;;;;;;;23.90;89.01;98446.19;5112099;28;20585;-71
2021/06/04 03:51:07;;;;;;;4.70;3.53;;;;;;;23.38;90.55;98445.66;5111668;28;20209;-71
2021/06/04 03:53:34;;;;;;;5.30;3.70;;;;;;;23.75;91.40;98440.72;5112045;28;20222;-71
2021/06/04 03:56:01;;;;;;;8.97;4.03;;;;;;;23.88;90.74;98438.25;5112121;28;20201;-71
2021/06/04 03:58:29;;;;;;;5.60;3.67;;;;;;;23.96;90.75;98445.09;5112062;28;20229;-72
2021/06/04 04:01:02;;;;;;;5.67;3.43;;;;;;;24.02;89.97;98442.06;5112048;28;20201;-71
2021/06/04 04:03:29;;;;;;;7.60;3.90;;;;;;;24.16;89.38;98447.75;5112363;28;20189;-72
2021/06/04 04:05:56;;;;;;;7.13;4.30;;;;;;;24.18;88.93;98438.19;5106890;28;20201;-72
2021/06/04 04:08:27;;;;;;;6.27;3.90;;;;;;;24.18;89.05;98443.66;5112027;28;20563;-71
2021/06/04 04:10:55;;;;;;;6.27;4.00;;;;;;;24.21;89.98;98437.66;5112082;28;20243;-71
2021/06/04 04:13:22;;;;;;;4.20;3.60;;;;;;;24.56;87.90;98440.25;5111886;28;20199;-71
2021/06/04 04:15:50;;;;;;;5.37;3.40;;;;;;;24.65;87.53;98438.59;5107734;28;20207;-71
2021/06/04 04:18:18;;;;;;;4.87;3.63;;;;;;;24.99;86.12;98438.69;5111885;28;20236;-72
2021/06/04 04:20:47;;;;;;;6.93;3.63;;;;;;;25.12;85.30;98446.22;5111824;28;20209;-71
2021/06/04 04:23:16;;;;;;;4.93;3.90;;;;;;;25.49;82.95;98443.81;5112621;28;20206;-71
2021/06/04 04:25:45;;;;;;;4.83;3.80;;;;;;;25.87;82.07;98446.47;5111600;28;20191;-71
2021/06/04 04:28:16;;;;;;;5.83;4.43;;;;;;;26.03;80.17;98447.16;5111558;28;20737;-71
2021/06/04 04:30:42;;;;;;;4.77;3.80;;;;;;;25.56;84.81;98438.84;5111275;28;20188;-72
2021/06/04 04:33:11;;;;;;;4.33;3.77;;;;;;;25.58;86.85;98442.91;5111921;28;20199;-71
2021/06/04 04:35:39;;;;;;;3.63;3.13;;;;;;;25.93;83.41;98441.78;5108203;28;20291;-72
2021/06/04 04:38:07;;;;;;;5.57;3.87;;;;;;;26.34;81.43;98446.53;5111727;28;20332;-71
2021/06/04 04:40:37;;;;;;;5.03;3.77;;;;;;;26.62;79.22;98459.38;5112022;28;20302;-72
2021/06/04 04:43:04;;;;;;;6.23;3.43;;;;;;;26.71;78.43;98454.06;5109233;28;20195;-72
2021/06/04 04:45:32;;;;;;;4.47;3.10;;;;;;;26.50;78.64;98453.47;5112279;28;20200;-72
2021/06/04 04:48:01;;;;;;;3.80;3.23;;;;;;;26.53;78.16;98455.63;5111996;28;20722;-72
2021/06/04 04:50:28;;;;;;;3.77;2.97;;;;;;;26.77;76.71;98452.91;5115156;28;20676;-72
2021/06/04 04:52:56;;;;;;;3.93;3.03;;;;;;;26.80;76.18;98464.06;5114218;28;20222;-72
2021/06/04 04:55:26;;;;;;;3.77;3.20;;;;;;;26.84;76.50;98461.53;5109715;28;20207;-72
2021/06/04 04:57:53;;;;;;;4.73;3.20;;;;;;;26.79;77.36;98469.84;5115708;28;20224;-71
2021/06/04 05:00:23;;;;;;;3.83;3.30;;;;;;;26.32;80.88;98475.31;5110829;28;20210;-72
2021/06/04 05:02:50;;;;;;;5.43;3.57;;;;;;;26.13;82.08;98464.28;5115492;28;20200;-71
2021/06/04 05:05:18;;;;;;;4.53;3.13;;;;;;;26.63;81.42;98457.44;5110798;28;20207;-71
2021/06/04 05:07:45;;;;;;;4.63;3.77;;;;;;;26.42;81.94;98459.59;5108610;28;20226;-71
2021/06/04 05:10:14;;;;;;;3.87;3.47;;;;;;;26.53;81.40;98461.09;5115671;28;20256;-72
2021/06/04 05:12:41;;;;;;;4.40;3.40;;;;;;;25.91;83.66;98457.66;5108266;28;20200;-71
2021/06/04 05:15:13;;;;;;;6.83;3.67;;;;;;;25.75;85.50;98453.44;5110262;28;20209;-71
2021/06/04 05:17:40;;;;;;;4.97;3.20;;;;;;;26.45;83.39;98456.25;5106697;28;20229;-71
2021/06/04 05:20:08;;;;;;;3.87;3.00;;;;;;;27.06;79.83;98467.28;5109340;28;20271;-73
2021/06/04 05:22:35;;;;;;;6.53;3.40;;;;;;;26.49;83.53;98459.22;5105300;28;20569;-75
2021/06/04 05:25:03;;;;;;;3.97;3.10;;;;;;;26.18;85.66;98460.69;5109726;28;20200;-81
2021/06/04 05:27:31;;;;;;;3.63;3.30;;;;;;;26.43;81.98;98463.97;5109433;28;20222;-75
2021/06/04 05:29:58;;;;;;;4.37;3.23;;;;;;;26.75;81.07;98474.28;5114955;28;20200;-77
2021/06/04 05:32:25;;;;;;;6.50;3.23;;;;;;;25.32;89.54;98466.06;5111843;28;20231;-84
2021/06/04 05:34:52;;;;;;;5.67;3.10;;;;;;;25.49;89.03;98463.75;5115007;28;20200;-71
2021/06/04 05:37:19;;;;;;;6.00;3.80;;;;;;;25.63;87.37;98459.28;5114497;28;20232;-73
2021/06/04 05:39:45;;;;;;;6.90;3.50;;;;;;;26.46;82.45;98479.78;5112305;28;20747;-75
2021/06/04 05:42:12;;;;;;;5.13;3.27;;;;;;;26.88;81.08;98474.38;5111480;28;20196;-72
2021/06/04 05:44:42;;;;;;;3.97;3.00;;;;;;;27.26;77.38;98472.50;5122976;27;20203;-72
2021/06/04 05:47:13;;;;;;;7.53;2.97;;;;;;;28.50;69.97;98487.94;5114977;28;20239;-72
2021/06/04 05:49:40;;;;;;;2.77;2.50;;;;;;;28.36;68.67;98492.56;5114350;28;20211;-72
2021/06/04 05:52:10;;;;;;;4.03;2.50;;;;;;;28.43;67.02;98498.53;5110184;28;20185;-75
2021/06/04 05:54:38;;;;;;;4.50;2.63;;;;;;;28.07;67.69;98501.06;5114185;28;20233;-74
2021/06/04 05:57:05;;;;;;;3.43;2.40;;;;;;;28.60;64.36;98502.31;5114728;28;20221;-74
2021/06/04 05:59:32;;;;;;;4.47;2.30;;;;;;;28.55;64.26;98496.91;5121778;27;20211;-74
2021/06/04 06:02:01;;;;;;;5.40;2.53;;;;;;;28.42;64.98;98497.72;5114057;28;20318;-74
2021/06/04 06:04:28;;;;;;;9.60;3.40;;;;;;;28.66;63.96;98497.50;5106820;27;20276;-74
2021/06/04 06:06:55;;;;;;;4.67;2.40;;;;;;;28.61;64.04;98494.88;5112958;28;20201;-74
2021/06/04 06:09:22;;;;;;;5.03;2.37;;;;;;;28.42;64.62;98496.91;5108283;28;20196;-73
2021/06/04 06:11:50;;;;;;;6.87;2.27;;;;;;;29.10;61.36;98515.03;5111009;28;20207;-73
2021/06/04 06:14:18;;;;;;;3.63;2.33;;;;;;;28.62;62.40;98504.72;5114926;27;20232;-73
2021/06/04 06:16:46;;;;;;;3.13;2.03;;;;;;;28.90;62.52;98514.59;5116008;27;20217;-73
2021/06/04 06:19:16;;;;;;;4.27;2.50;;;;;;;28.82;62.52;98505.16;5105797;27;20249;-73
2021/06/04 06:21:48;;;;;;;4.13;2.60;;;;;;;29.00;62.87;98508.94;5112850;28;20198;-73
2021/06/04 06:24:16;;;;;;;3.83;2.60;;;;;;;27.86;68.80;98493.50;5112250;28;20542;-73
2021/06/04 06:26:43;;;;;;;7.63;2.80;;;;;;;29.18;63.24;98500.53;5113630;28;20200;-73
2021/06/04 06:29:13;;;;;;;3.20;2.40;;;;;;;29.72;59.97;98510.59;5107927;28;20312;-73
2021/06/04 06:31:41;;;;;;;2.60;2.30;;;;;;;29.67;60.32;98511.53;5109935;28;20209;-73
2021/06/04 06:34:09;;;;;;;11.33;2.90;;;;;;;28.33;65.83;98504.19;5108580;28;20216;-74
2021/06/04 06:36:40;;;;;;;5.40;2.93;;;;;;;29.35;59.95;98521.91;5105588;28;20203;-74
2021/06/04 06:39:10;;;;;;;3.17;2.63;;;;;;;28.38;64.58;98506.84;5106221;28;20215;-73
2021/06/04 06:41:37;;;;;;;9.23;3.63;;;;;;;28.91;63.99;98516.22;5112399;27;20579;-73
2021/06/04 06:44:04;;;;;;;5.13;2.70;;;;;;;28.24;65.63;98519.72;5103773;28;20202;-74
2021/06/04 06:46:31;;;;;;;5.13;3.00;;;;;;;27.61;69.53;98519.38;5110341;28;20241;-73
2021/06/04 06:48:59;;;;;;;4.37;2.80;;;;;;;27.32;70.96;98512.44;5112882;28;20220;-74
2021/06/04 06:51:26;;;;;;;6.47;3.07;;;;;;;27.57;69.22;98515.59;5111897;28;20240;-73
2021/06/04 06:53:56;;;;;;;8.90;2.90;;;;;;;27.84;68.58;98523.16;5104306;28;20216;-73
2021/06/04 06:56:23;;;;;;;5.17;2.90;;;;;;;27.68;69.56;98519.00;5107836;28;20233;-73
2021/06/04 06:58:50;;;;;;;5.13;2.73;;;;;;;28.58;65.53;98523.75;5097751;28;20304;-76
2021/06/04 07:01:17;;;;;;;9.40;3.40;;;;;;;28.45;65.64;98524.56;5105123;27;20296;-74
2021/06/04 07:03:53;;;;;;;5.53;3.10;;;;;;;27.42;69.79;98518.56;5104789;28;20678;-76
2021/06/04 07:06:22;;;;;;;5.07;3.30;;;;;;;29.41;61.41;98523.41;5108077;27;20251;-76
2021/06/04 07:08:49;;;;;;;5.53;3.03;;;;;;;27.66;68.71;98518.50;5101757;28;20223;-76
2021/06/04 07:11:18;;;;;;;5.03;3.30;;;;;;;27.17;72.38;98507.13;5105648;27;20276;-76
2021/06/04 07:13:45;;;;;;;8.07;3.17;;;;;;;28.18;67.40;98518.19;5102377;28;20216;-76
2021/06/04 07:16:12;;;;;;;5.63;3.43;;;;;;;28.34;65.55;98536.84;5102565;28;20572;-77
2021/06/04 07:18:40;;;;;;;6.37;3.13;;;;;;;28.73;62.80;98539.16;5104404;28;20316;-74
2021/06/04 07:21:08;;;;;;;5.93;3.60;;;;;;;29.67;58.93;98547.31;5114835;28;20229;-74
2021/06/04 07:23:35;;;;;;;5.53;3.43;;;;;;;29.75;57.39;98554.00;5109528;28;20201;-73
2021/06/04 07:26:02;;;;;;;8.90;3.77;;;;;;;28.93;61.13;98552.47;5114785;28;20218;-73
2021/06/04 07:28:32;;;;;;;3.67;3.10;;;;;;;28.23;64.49;98548.31;5107229;28;20231;-73
2021/06/04 07:31:01;;;;;;;7.00;3.70;;;;;;;27.78;66.42;98543.53;5113767;28;20292;-73
2021/06/04 07:33:30;;;;;;;6.47;3.70;;;;;;;28.31;65.40;98544.84;5115313;27;20543;-73
2021/06/04 07:35:58;;;;;;;6.80;3.13;;;;;;;28.19;65.82;98539.84;5111007;27;20206;-73
2021/06/04 07:38:25;;;;;;;8.47;3.50;;;;;;;29.11;61.34;98549.66;5107139;27;20692;-73
2021/06/04 07:40:53;;;;;;;8.40;3.40;;;;;;;30.21;56.57;98552.56;5110458;28;20202;-74
2021/06/04 07:43:22;;;;;;;6.13;3.40;;;;;;;30.03;57.49;98559.09;5106662;28;20266;-76
2021/06/04 07:45:51;;;;;;;5.57;3.10;;;;;;;28.45;63.37;98556.72;5102913;28;20218;-85
2021/06/04 07:48:20;;;;;;;5.28;3.35;;;;;;;29.57;59.22;98553.03;5110030;28;20231;-72
2021/06/04 07:50:48;;;;;;;5.63;3.03;;;;;;;30.45;54.63;98552.25;5105096;28;20854;-70
2021/06/04 07:53:17;;;;;;;6.47;3.38;;;;;;;31.14;52.58;98548.66;5099856;28;20199;-74
2021/06/04 07:55:45;;;;;;;6.00;3.08;;;;;;;30.61;54.07;98551.50;5101484;28;20561;-74
2021/06/04 07:58:12;;;;;;;5.47;3.42;;;;;;;29.64;58.50;98541.63;5106311;28;20219;-75
2021/06/04 08:00:39;;;;;;;4.07;2.70;;;;;;;29.13;59.45;98541.09;5100602;28;20200;-75
2021/06/04 08:03:09;;;;;;;3.63;3.10;;;;;;;30.41;55.07;98543.00;5110480;28;20572;-73
2021/06/04 08:05:36;;;;;;;3.67;2.85;;;;;;;29.71;57.53;98537.31;5111022;28;20211;-74
2021/06/04 08:08:05;;;;;;;6.55;2.75;;;;;;;28.82;60.54;98534.53;5108641;28;20356;-75
2021/06/04 08:10:32;;;;;;;5.00;2.75;;;;;;;30.21;55.88;98529.75;5119423;27;20294;-76
2021/06/04 08:13:00;;;;;;;7.32;2.90;;;;;;;31.24;50.49;98545.63;5108877;28;20291;-74
2021/06/04 08:15:30;;;;;;;5.07;2.70;;;;;;;30.16;54.13;98543.66;5102805;28;20683;-73
2021/06/04 08:17:57;;;;;;;7.30;2.78;;;;;;;31.79;49.14;98550.28;5107936;28;20227;-72
2021/06/04 08:20:29;;;;;;;3.67;2.42;;;;;;;32.82;44.92;98573.03;5107934;28;20224;-72
2021/06/04 08:22:58;;;;;;;3.08;2.38;;;;;;;29.56;54.16;98545.91;5106857;28;20205;-74
2021/06/04 08:25:28;;;;;;;3.25;2.45;;;;;;;29.78;53.83;98545.09;5104655;28;20229;-74
2021/06/04 08:27:55;;;;;;;2.72;1.77;;;;;;;31.33;49.44;98546.47;5106302;28;20224;-73
2021/06/04 08:30:23;;;;;;;3.75;2.47;;;;;;;32.44;44.16;98550.03;5099442;28;20638;-79
2021/06/04 08:32:50;;;;;;;4.20;2.35;;;25.00;1.00;;;31.49;46.59;98553.13;5109537;28;20571;-74
2021/06/04 08:35:17;;;;;;;3.13;2.22;;;25.00;1.00;;;30.80;50.41;98543.03;5097541;28;20204;-76
2021/06/04 08:37:45;;;;;;;4.80;2.40;;;24.70;1.00;;;30.26;51.77;98541.44;5108554;28;20268;-76
2021/06/04 08:40:19;;;;;;;3.53;2.38;;;24.50;1.00;;;29.92;52.47;98543.13;5106180;28;20208;-72
2021/06/04 08:43:01;;;;;;;4.40;2.35;;;24.70;1.00;;;30.29;51.17;98548.25;5107098;28;20238;-74
2021/06/04 08:45:37;;;;;;;4.47;2.30;;;24.70;1.00;;;29.73;52.28;98543.31;5103367;28;20203;-75
2021/06/04 08:48:16;;;;;;;3.50;2.10;;;24.60;1.00;;;29.97;50.80;98548.50;5104684;28;20220;-75
2021/06/04 08:50:56;;;;;;;2.80;2.10;;;24.90;1.00;;;31.28;48.08;98539.16;5095603;28;20216;-75
2021/06/04 08:53:32;;;;;;;3.15;2.10;;;25.10;1.00;;;31.00;46.84;98546.03;5099729;28;20273;-76
2021/06/04 08:56:04;;;;;;;2.70;2.28;;;25.40;1.00;;;32.48;44.73;98553.78;5101665;28;20235;-77
2021/06/04 08:58:57;;;;;;;4.22;2.17;;;25.40;1.00;;;32.51;43.98;98559.44;5101049;28;20232;-75
2021/06/04 09:01:33;;;;;;;3.60;2.13;;;25.50;1.00;;;32.73;41.89;98570.25;5098530;28;20216;-74
2021/06/04 09:04:05;;;;;;;4.60;2.17;;;25.50;1.00;;;33.06;41.98;98564.94;5099050;28;20234;-74
2021/06/04 09:06:38;;;;;;;3.42;2.20;;;25.70;1.00;;;30.94;48.54;98546.47;5097358;28;20619;-74
2021/06/04 09:09:17;;;;;;;3.95;2.22;;;25.30;1.00;;;31.23;48.27;98541.25;5097835;28;20217;-72
2021/06/04 09:11:44;;;;;;;4.18;2.05;;;25.30;1.00;;;32.74;43.42;98557.25;5102353;28;20214;-75
2021/06/04 09:14:11;;;;;;;4.18;2.20;;;25.70;1.00;;;30.71;49.56;98542.19;5106553;28;20711;-79
2021/06/04 09:16:53;;;;;;;3.38;1.70;;;25.30;1.00;;;31.73;47.50;98526.69;5107435;28;20674;-78
2021/06/04 09:19:26;;;;;;;2.75;2.10;;;25.20;1.00;;;31.72;46.21;98538.84;5112211;28;20290;-79
2021/06/04 09:21:54;;;;;;;4.50;2.05;;;25.80;1.00;;;31.94;46.28;98537.91;5103745;28;20208;-79
2021/06/04 09:24:30;;;;;;;3.00;1.88;;;25.90;1.00;;;32.41;44.17;98543.22;5106406;28;20676;-79
2021/06/04 09:26:57;;;;;;;5.07;1.90;;;26.10;1.00;;;32.40;44.81;98529.72;5111714;28;20298;-78
2021/06/04 09:29:27;;;;;;;5.22;1.90;;;26.10;1.00;;;32.42;43.77;98538.47;5117112;28;20195;-80
2021/06/04 09:31:57;;;;;;;3.58;1.70;;;26.30;1.00;;;31.34;46.78;98529.59;5111023;28;20208;-80
2021/06/04 09:34:32;;;;;;;2.92;1.83;;;25.90;1.00;;;31.60;45.47;98529.59;5110443;28;20281;-80
2021/06/04 09:37:02;;;;;;;3.92;1.85;;;25.80;1.00;;;31.38;45.88;98533.34;5111644;28;20209;-80
2021/06/04 09:39:35;;;;;;;5.45;1.95;;;25.40;1.00;;;32.97;41.13;98542.03;5114269;28;20200;-80
2021/06/04 09:42:16;;;;;;;3.72;1.75;;;25.60;1.00;;;31.55;45.30;98527.81;5116585;28;20213;-80
2021/06/04 09:44:56;;;;;;;2.35;1.75;;;25.50;1.00;;;33.13;40.57;98527.31;5114021;28;20640;-80
2021/06/04 09:47:37;;;;;;;4.88;1.95;;;25.60;1.00;;;32.19;43.46;98521.28;5104814;28;20221;-80
2021/06/04 09:50:22;;;;;;;2.92;1.98;;;25.40;1.00;;;30.44;49.05;98521.13;5111728;28;20284;-80
2021/06/04 09:53:07;;;;;;;4.22;1.80;;;25.10;1.00;;;31.31;48.17;98513.66;5110994;28;20204;-79
2021/06/04 09:55:38;;;;;;;6.43;1.90;;;25.00;1.00;;;32.68;44.54;98519.88;5106641;28;20207;-80
2021/06/04 09:58:27;;;;;;;5.63;2.25;;;25.40;1.00;;;31.00;49.72;98503.84;5110969;28;20224;-84
2021/06/04 10:01:10;;;;;;;4.28;2.25;;;25.50;1.00;;;31.21;49.17;98494.66;5109375;28;20201;-80
2021/06/04 10:03:47;;;;;;;4.03;2.10;;;25.30;1.00;;;31.67;47.59;98508.66;5116267;28;20195;-78
2021/06/04 10:06:38;;;;;;;3.50;2.03;;;25.70;1.00;;;32.19;46.64;98501.16;5110691;28;20202;-79
2021/06/04 10:09:23;;;;;;;6.43;2.67;;;25.30;1.00;;;30.74;51.94;98494.69;5111404;28;20241;-81
2021/06/04 10:12:04;;;;;;;6.05;2.58;;;25.20;1.00;;;32.16;47.62;98497.09;5107434;28;20249;-81
2021/06/04 10:14:52;;;;;;;3.22;1.88;;;25.60;1.00;;;32.85;44.70;98506.00;5113456;28;20229;-81
2021/06/04 10:17:40;;;;;;;5.03;2.40;;;26.10;1.00;;;31.85;46.73;98501.19;5108855;28;20235;-78
2021/06/04 10:20:32;;;;;;;5.10;2.55;;;26.50;1.00;;;32.97;44.39;98495.84;5111874;28;20288;-80
2021/06/04 10:23:11;;;;;;;6.22;2.05;;;26.40;1.00;;;32.01;45.42;98496.78;5105816;28;20196;-80
2021/06/04 10:25:48;;;;;;;4.57;2.20;;;26.70;1.00;;;32.29;45.19;98498.06;5115135;27;20226;-79
2021/06/04 10:28:39;;;;;;;3.80;2.20;;;26.80;1.00;;;31.89;46.04;98502.19;5119901;28;20261;-78
2021/06/04 10:31:26;;;;;;;4.53;2.28;;;27.00;1.00;;;33.08;44.05;98496.25;5114533;28;20561;-72
2021/06/04 10:34:02;;;;;;;3.55;2.33;;;26.30;1.00;;;32.89;42.39;98506.97;5100953;28;20555;-72
2021/06/04 10:36:35;;;;;;;5.97;2.88;;;26.20;1.00;;;33.08;42.17;98510.09;5096702;28;20212;-73
2021/06/04 10:39:07;;;;;;;3.88;2.08;;;26.00;1.00;;;32.79;42.76;98512.88;5105458;28;20230;-74
2021/06/04 10:41:46;;;;;;;2.75;1.88;;;25.90;1.00;;;32.63;41.95;98509.00;5104294;28;20201;-74
2021/06/04 10:44:24;;;;;;;3.88;2.38;;;26.10;1.00;;;32.44;42.85;98500.28;5101446;28;20238;-72
2021/06/04 10:47:00;;;;;;;4.60;2.25;;;26.10;1.00;;;32.98;41.25;98499.41;5105786;28;20215;-72
2021/06/04 10:49:50;;;;;;;6.63;2.05;;;26.30;1.00;;;33.44;40.07;98502.88;5106713;28;20207;-73
2021/06/04 10:52:28;;;;;;;4.18;2.53;;;26.50;1.00;;;33.60;40.42;98503.88;5100758;28;20220;-71
2021/06/04 10:55:06;;;;;;;4.00;2.58;;;26.30;1.00;;;33.32;40.73;98499.22;5105471;28;20211;-75
2021/06/04 10:57:39;;;;;;;5.32;2.13;;;26.00;1.00;;;32.47;43.41;98494.09;5098813;28;20223;-75
2021/06/04 11:00:12;;;;;;;4.07;2.60;;;25.80;1.00;;;31.37;47.51;98484.78;5101287;28;20685;-77
2021/06/04 11:02:47;;;;;;;2.38;2.00;;;25.40;1.00;;;31.70;47.32;98485.94;5096971;28;20266;-72
2021/06/04 11:05:49;;;;;;;4.95;2.55;;;25.20;1.00;;;32.02;45.27;98490.94;5104860;28;20205;-74
2021/06/04 11:08:54;;;;;;;7.10;2.72;;;25.20;1.00;;;32.55;44.94;98496.03;5097187;28;20227;-75
2021/06/04 11:11:35;;;;;;;3.53;2.30;;;25.20;1.00;;;32.92;42.88;98496.03;5102764;28;20208;-74
2021/06/04 11:14:41;;;;;;;3.22;2.30;;;25.40;1.00;;;32.71;44.04;98494.31;5101796;28;20201;-74
2021/06/04 11:17:24;;;;;;;5.43;2.88;;;25.10;1.00;;;33.19;43.69;98489.19;5100525;28;20261;-74
2021/06/04 11:19:57;;;;;;;5.25;2.72;;;25.10;1.00;;;33.33;42.81;98495.31;5105949;28;20210;-75
2021/06/04 11:22:28;;;;;;;5.28;2.55;;;25.20;1.00;;;30.04;50.72;98474.53;5095307;28;20208;-72
2021/06/04 11:25:01;;;;;;;6.43;2.20;;;24.80;1.00;;;31.42;47.37;98476.34;5097870;28;20231;-79
2021/06/04 11:27:36;;;;;;;4.47;2.50;;;24.70;1.00;;;31.19;47.69;98472.09;5109533;28;20243;-75
2021/06/04 11:30:07;;;;;;;4.20;2.55;;;24.80;1.00;;;31.83;45.99;98482.19;5102656;28;20196;-74
2021/06/04 11:32:43;;;;;;;4.10;2.25;;;25.00;1.00;;;31.48;46.75;98474.25;5096720;28;20210;-77